»·PEaware :: EJA219 KRNO-KVNY

EJA219 :: KRNO-KVNY

FLIGHT INFORMATION

Flight Status: Arrived
Operator:
Netjets Aviation
More flights by this operator :: More flights under this callsign
Pilot: Philip B. (42472)
Aircraft: CANADAIR CL-600 CHALLENGER
(CL60)
More flights by this aircraft type
Origin: KRNO Reno/Tahoe Intl
United States
Destination: KVNY Van Nuys
United States
More flights between these airports :: More routes between these airports
Route: ZEFFR8 DARBI FRA REBRG IVINS1
File this flight plan on PilotEdge
Remarks:
Altitude:
(Current/Filed)
41,000ft
Speed:
(Current/Filed)
455kts
Departed: 10-Nov-23 02:30 PM
Arrived: 10-Nov-23 03:24 PM
Distance/Time
Traveled:
323nm/0:54
Distance/Time
To Go:
Arrived

Flight Plot

Page will automatically refresh every two minutes.

Flight plan parsing failed; only flown route is shown


Map Options




Map Legend


Flown Route
Filed Route
Departure Airport
Arrival Airport
Navaid (VOR, NDB)
Fix

Horizontal Profiles

Position Reports

Time Latitude Longitude Heading Altitude Ground
Speed
10-Nov-23 14:07 39.501306 -119.764383 181 4409ft 0kts
10-Nov-23 14:08 39.501306 -119.764383 181 4409ft 0kts
10-Nov-23 14:09 39.501306 -119.764383 181 4409ft 0kts
10-Nov-23 14:10 39.501306 -119.764383 181 4409ft 0kts
10-Nov-23 14:11 39.501306 -119.764383 181 4409ft 0kts
10-Nov-23 14:11 39.501306 -119.764383 181 4409ft 0kts
10-Nov-23 14:13 39.501306 -119.764383 181 4409ft 0kts
10-Nov-23 14:14 39.501306 -119.764383 181 4409ft 0kts
10-Nov-23 14:15 39.501306 -119.764383 181 4409ft 0kts
10-Nov-23 14:15 39.501306 -119.764383 181 4409ft 0kts
10-Nov-23 14:16 39.501306 -119.764383 181 4409ft 0kts
10-Nov-23 14:17 39.501306 -119.764383 181 4409ft 0kts
10-Nov-23 14:18 39.501306 -119.764383 181 4409ft 0kts
10-Nov-23 14:20 39.501306 -119.764383 181 4409ft 0kts
10-Nov-23 14:20 39.501306 -119.764383 181 4409ft 0kts
10-Nov-23 14:21 39.501306 -119.764383 181 4409ft 0kts
10-Nov-23 14:22 39.501292 -119.764384 184 4409ft 0kts
10-Nov-23 14:23 39.501262 -119.764387 183 4409ft 0kts
10-Nov-23 14:24 39.501249 -119.764388 184 4409ft 0kts
10-Nov-23 14:25 39.500888 -119.765581 305 4409ft 6kts
10-Nov-23 14:26 39.505954 -119.765709 0 4412ft 27kts
10-Nov-23 14:27 39.511260 -119.765170 359 4416ft 14kts
10-Nov-23 14:28 39.513720 -119.765643 276 4417ft 0kts
10-Nov-23 14:29 39.508791 -119.766767 180 4414ft 109kts
10-Nov-23 14:30 39.456575 -119.767627 183 7634ft 220kts
10-Nov-23 14:31 39.392541 -119.769238 182 11703ft 278kts
10-Nov-23 14:32 39.306533 -119.769002 180 15837ft 326kts
10-Nov-23 14:33 39.213102 -119.765552 179 19841ft 349kts
10-Nov-23 14:34 39.112540 -119.761813 179 23179ft 372kts
10-Nov-23 14:35 39.005016 -119.757809 179 25989ft 399kts
10-Nov-23 14:36 38.890701 -119.753549 180 28397ft 422kts
10-Nov-23 14:37 38.768561 -119.749006 180 30443ft 442kts
10-Nov-23 14:38 38.642739 -119.744335 180 32118ft 459kts
10-Nov-23 14:39 38.513975 -119.739559 179 33764ft 467kts
10-Nov-23 14:40 38.385176 -119.734778 179 35866ft 455kts
10-Nov-23 14:41 38.259358 -119.727327 175 37407ft 450kts
10-Nov-23 14:42 38.135876 -119.712915 175 38747ft 443kts
10-Nov-23 14:43 38.012822 -119.698702 176 39394ft 449kts
10-Nov-23 14:44 37.885783 -119.684127 175 39410ft 468kts
10-Nov-23 14:45 37.752541 -119.668878 176 39410ft 483kts
10-Nov-23 14:46 37.617113 -119.653445 176 39404ft 488kts
10-Nov-23 14:47 37.482150 -119.638120 176 39307ft 486kts
10-Nov-23 14:48 37.347841 -119.622931 176 39261ft 484kts
10-Nov-23 14:49 37.213622 -119.607814 176 39248ft 485kts
10-Nov-23 14:50 37.078803 -119.595449 183 39249ft 483kts
10-Nov-23 14:51 36.944381 -119.598050 183 39257ft 482kts
10-Nov-23 14:52 36.809077 -119.600509 183 39255ft 481kts
10-Nov-23 14:53 36.675373 -119.602873 183 39340ft 481kts
10-Nov-23 14:54 36.541027 -119.605221 183 39341ft 482kts
10-Nov-23 14:55 36.407126 -119.607530 183 39343ft 481kts
10-Nov-23 14:56 36.273544 -119.609826 183 39342ft 480kts
10-Nov-23 14:57 36.139615 -119.612108 183 39336ft 480kts
10-Nov-23 14:58 36.005805 -119.614373 184 39345ft 479kts
10-Nov-23 14:59 35.872200 -119.616827 186 39260ft 479kts
10-Nov-23 15:00 35.745227 -119.651694 198 37149ft 457kts
10-Nov-23 15:01 35.621020 -119.675122 177 34850ft 459kts
10-Nov-23 15:02 35.494227 -119.657745 175 32332ft 455kts
10-Nov-23 15:03 35.371526 -119.624947 167 30046ft 446kts
10-Nov-23 15:04 35.252395 -119.590161 167 27869ft 432kts
10-Nov-23 15:05 35.152145 -119.513638 142 25615ft 422kts
10-Nov-23 15:06 35.060600 -119.427506 142 23514ft 406kts
10-Nov-23 15:07 34.970506 -119.350068 152 21500ft 385kts
10-Nov-23 15:08 34.877983 -119.287926 152 19502ft 366kts
10-Nov-23 15:09 34.789663 -119.229544 152 17593ft 350kts
10-Nov-23 15:10 34.705367 -119.174151 152 15747ft 337kts
10-Nov-23 15:11 34.623959 -119.121000 152 13978ft 325kts
10-Nov-23 15:12 34.545341 -119.070008 148 12253ft 313kts
10-Nov-23 15:13 34.476838 -119.007872 142 10840ft 303kts
10-Nov-23 15:14 34.410875 -118.944904 140 9444ft 296kts
10-Nov-23 15:15 34.368629 -118.863376 111 8078ft 286kts
10-Nov-23 15:16 34.338353 -118.775211 111 7239ft 283kts
10-Nov-23 15:17 34.312364 -118.685439 104 6272ft 281kts
10-Nov-23 15:18 34.296001 -118.596597 84 4594ft 258kts
10-Nov-23 15:19 34.302036 -118.525113 83 3106ft 171kts
10-Nov-23 15:20 34.279053 -118.496835 175 2102ft 129kts
10-Nov-23 15:21 34.242860 -118.493402 175 1425ft 129kts
10-Nov-23 15:22 34.207981 -118.490214 174 779ft 80kts
10-Nov-23 15:23 34.205018 -118.491088 356 773ft 15kts
10-Nov-23 15:24 34.206713 -118.494042 51 776ft 3kts
10-Nov-23 15:25 34.206719 -118.493811 91 776ft 0kts
10-Nov-23 15:26 34.206719 -118.493811 91 776ft 0kts
10-Nov-23 15:27 34.206719 -118.493811 91 776ft 0kts

Navigation Log

Ident Type
Flight plan parsing failed, navigation log unavailable